sensor_id;sensor_type;location;lat;lon;timestamp;P1;durP1;ratioP1;P2;durP2;ratioP2
19341;SDS011;9807;48.258;12.690;2023-10-13T00:01:55;9.00;;;5.30;;
19341;SDS011;9807;48.258;12.690;2023-10-13T00:04:24;9.30;;;5.93;;
19341;SDS011;9807;48.258;12.690;2023-10-13T00:06:51;7.03;;;5.00;;
19341;SDS011;9807;48.258;12.690;2023-10-13T00:09:21;10.10;;;5.97;;
19341;SDS011;9807;48.258;12.690;2023-10-13T00:11:50;8.07;;;4.60;;
19341;SDS011;9807;48.258;12.690;2023-10-13T00:14:20;9.77;;;5.03;;
19341;SDS011;9807;48.258;12.690;2023-10-13T00:16:47;6.83;;;5.07;;
19341;SDS011;9807;48.258;12.690;2023-10-13T00:19:31;14.87;;;6.90;;
19341;SDS011;9807;48.258;12.690;2023-10-13T00:22:11;6.73;;;4.77;;
19341;SDS011;9807;48.258;12.690;2023-10-13T00:24:41;7.07;;;4.90;;
19341;SDS011;9807;48.258;12.690;2023-10-13T00:27:11;7.73;;;5.30;;
19341;SDS011;9807;48.258;12.690;2023-10-13T00:29:52;10.27;;;6.10;;
19341;SDS011;9807;48.258;12.690;2023-10-13T00:32:46;8.53;;;5.40;;
19341;SDS011;9807;48.258;12.690;2023-10-13T00:35:18;9.90;;;5.10;;
19341;SDS011;9807;48.258;12.690;2023-10-13T00:37:53;7.30;;;5.17;;
19341;SDS011;9807;48.258;12.690;2023-10-13T00:40:23;7.90;;;5.30;;
19341;SDS011;9807;48.258;12.690;2023-10-13T00:42:55;6.47;;;4.63;;
19341;SDS011;9807;48.258;12.690;2023-10-13T00:45:45;9.80;;;5.87;;
19341;SDS011;9807;48.258;12.690;2023-10-13T00:48:44;9.90;;;5.83;;
19341;SDS011;9807;48.258;12.690;2023-10-13T00:51:16;6.87;;;5.07;;
19341;SDS011;9807;48.258;12.690;2023-10-13T00:54:05;8.47;;;5.63;;
19341;SDS011;9807;48.258;12.690;2023-10-13T00:56:38;8.40;;;5.60;;
19341;SDS011;9807;48.258;12.690;2023-10-13T00:59:22;7.33;;;5.07;;
19341;SDS011;9807;48.258;12.690;2023-10-13T01:01:56;7.53;;;5.50;;
19341;SDS011;9807;48.258;12.690;2023-10-13T01:04:22;9.97;;;5.63;;
19341;SDS011;9807;48.258;12.690;2023-10-13T01:06:53;7.30;;;4.87;;
19341;SDS011;9807;48.258;12.690;2023-10-13T01:09:18;15.40;;;6.70;;
19341;SDS011;9807;48.258;12.690;2023-10-13T01:11:48;6.57;;;5.30;;
19341;SDS011;9807;48.258;12.690;2023-10-13T01:14:18;9.00;;;5.20;;
19341;SDS011;9807;48.258;12.690;2023-10-13T01:16:45;13.00;;;6.70;;
19341;SDS011;9807;48.258;12.690;2023-10-13T01:19:16;10.90;;;6.93;;
19341;SDS011;9807;48.258;12.690;2023-10-13T01:21:50;7.97;;;5.13;;
19341;SDS011;9807;48.258;12.690;2023-10-13T01:24:22;7.40;;;5.40;;
19341;SDS011;9807;48.258;12.690;2023-10-13T01:26:49;8.63;;;6.57;;
19341;SDS011;9807;48.258;12.690;2023-10-13T01:29:18;18.30;;;7.47;;
19341;SDS011;9807;48.258;12.690;2023-10-13T01:31:45;9.37;;;6.00;;
19341;SDS011;9807;48.258;12.690;2023-10-13T01:34:15;7.07;;;5.23;;
19341;SDS011;9807;48.258;12.690;2023-10-13T01:36:50;8.50;;;5.50;;
19341;SDS011;9807;48.258;12.690;2023-10-13T01:39:21;8.53;;;5.00;;
19341;SDS011;9807;48.258;12.690;2023-10-13T01:41:52;6.10;;;5.00;;
19341;SDS011;9807;48.258;12.690;2023-10-13T01:44:24;11.63;;;5.67;;
19341;SDS011;9807;48.258;12.690;2023-10-13T01:46:55;8.43;;;4.60;;
19341;SDS011;9807;48.258;12.690;2023-10-13T01:49:34;8.13;;;5.63;;
19341;SDS011;9807;48.258;12.690;2023-10-13T01:52:07;10.60;;;5.20;;
19341;SDS011;9807;48.258;12.690;2023-10-13T01:54:37;7.67;;;5.43;;
19341;SDS011;9807;48.258;12.690;2023-10-13T01:57:06;8.17;;;4.80;;
19341;SDS011;9807;48.258;12.690;2023-10-13T01:59:32;6.73;;;4.80;;
19341;SDS011;9807;48.258;12.690;2023-10-13T02:01:58;7.83;;;4.90;;
19341;SDS011;9807;48.258;12.690;2023-10-13T02:04:26;5.97;;;4.70;;
19341;SDS011;9807;48.258;12.690;2023-10-13T02:06:52;7.40;;;4.93;;
19341;SDS011;9807;48.258;12.690;2023-10-13T02:09:18;9.53;;;5.63;;
19341;SDS011;9807;48.258;12.690;2023-10-13T02:11:54;7.30;;;5.37;;
19341;SDS011;9807;48.258;12.690;2023-10-13T02:14:22;5.57;;;4.67;;
19341;SDS011;9807;48.258;12.690;2023-10-13T02:16:50;8.50;;;5.30;;
19341;SDS011;9807;48.258;12.690;2023-10-13T02:19:20;9.33;;;5.30;;
19341;SDS011;9807;48.258;12.690;2023-10-13T02:21:47;8.07;;;5.10;;
19341;SDS011;9807;48.258;12.690;2023-10-13T02:24:23;8.83;;;5.00;;
19341;SDS011;9807;48.258;12.690;2023-10-13T02:26:56;6.30;;;4.47;;
19341;SDS011;9807;48.258;12.690;2023-10-13T02:29:28;6.57;;;5.30;;
19341;SDS011;9807;48.258;12.690;2023-10-13T02:31:53;7.97;;;4.97;;
19341;SDS011;9807;48.258;12.690;2023-10-13T02:34:20;10.87;;;5.37;;
19341;SDS011;9807;48.258;12.690;2023-10-13T02:36:48;6.60;;;4.97;;
19341;SDS011;9807;48.258;12.690;2023-10-13T02:39:14;9.27;;;5.20;;
19341;SDS011;9807;48.258;12.690;2023-10-13T02:41:51;11.10;;;5.30;;
19341;SDS011;9807;48.258;12.690;2023-10-13T02:44:17;6.80;;;4.70;;
19341;SDS011;9807;48.258;12.690;2023-10-13T02:46:56;5.77;;;4.07;;
19341;SDS011;9807;48.258;12.690;2023-10-13T02:49:23;10.17;;;4.67;;
19341;SDS011;9807;48.258;12.690;2023-10-13T02:51:51;8.33;;;5.00;;
19341;SDS011;9807;48.258;12.690;2023-10-13T02:54:18;7.53;;;4.97;;
19341;SDS011;9807;48.258;12.690;2023-10-13T02:56:44;6.70;;;5.13;;
19341;SDS011;9807;48.258;12.690;2023-10-13T02:59:24;10.27;;;5.07;;
19341;SDS011;9807;48.258;12.690;2023-10-13T03:02:00;8.93;;;5.10;;
19341;SDS011;9807;48.258;12.690;2023-10-13T03:04:42;5.97;;;4.43;;
19341;SDS011;9807;48.258;12.690;2023-10-13T03:07:14;5.83;;;4.10;;
19341;SDS011;9807;48.258;12.690;2023-10-13T03:09:51;7.73;;;4.60;;
19341;SDS011;9807;48.258;12.690;2023-10-13T03:12:18;7.30;;;5.43;;
19341;SDS011;9807;48.258;12.690;2023-10-13T03:14:44;8.67;;;5.00;;
19341;SDS011;9807;48.258;12.690;2023-10-13T03:17:13;7.13;;;4.77;;
19341;SDS011;9807;48.258;12.690;2023-10-13T03:19:45;7.20;;;5.07;;
19341;SDS011;9807;48.258;12.690;2023-10-13T03:22:15;8.47;;;4.30;;
19341;SDS011;9807;48.258;12.690;2023-10-13T03:24:41;5.53;;;4.37;;
19341;SDS011;9807;48.258;12.690;2023-10-13T03:27:12;6.40;;;5.03;;
19341;SDS011;9807;48.258;12.690;2023-10-13T03:29:44;6.07;;;4.90;;
19341;SDS011;9807;48.258;12.690;2023-10-13T03:32:14;6.73;;;4.90;;
19341;SDS011;9807;48.258;12.690;2023-10-13T03:34:44;7.33;;;5.33;;
19341;SDS011;9807;48.258;12.690;2023-10-13T03:37:36;5.80;;;4.10;;
19341;SDS011;9807;48.258;12.690;2023-10-13T03:40:06;10.03;;;4.60;;
19341;SDS011;9807;48.258;12.690;2023-10-13T03:43:01;6.27;;;4.40;;
19341;SDS011;9807;48.258;12.690;2023-10-13T03:48:04;8.50;;;5.20;;
19341;SDS011;9807;48.258;12.690;2023-10-13T03:50:46;11.33;;;5.97;;
19341;SDS011;9807;48.258;12.690;2023-10-13T03:53:14;10.30;;;5.37;;
19341;SDS011;9807;48.258;12.690;2023-10-13T03:55:40;8.67;;;4.83;;
19341;SDS011;9807;48.258;12.690;2023-10-13T03:58:14;7.40;;;4.60;;
19341;SDS011;9807;48.258;12.690;2023-10-13T04:00:41;5.83;;;4.30;;
19341;SDS011;9807;48.258;12.690;2023-10-13T04:03:07;8.57;;;5.10;;
19341;SDS011;9807;48.258;12.690;2023-10-13T04:05:34;5.83;;;4.20;;
19341;SDS011;9807;48.258;12.690;2023-10-13T04:08:06;5.70;;;4.33;;
19341;SDS011;9807;48.258;12.690;2023-10-13T04:10:54;7.40;;;4.60;;
19341;SDS011;9807;48.258;12.690;2023-10-13T04:13:22;9.33;;;4.80;;
19341;SDS011;9807;48.258;12.690;2023-10-13T04:16:07;13.27;;;5.67;;
19341;SDS011;9807;48.258;12.690;2023-10-13T04:18:49;7.97;;;4.60;;
19341;SDS011;9807;48.258;12.690;2023-10-13T04:21:23;13.53;;;6.50;;
19341;SDS011;9807;48.258;12.690;2023-10-13T04:27:23;7.83;;;4.77;;
19341;SDS011;9807;48.258;12.690;2023-10-13T04:30:04;6.30;;;4.07;;
19341;SDS011;9807;48.258;12.690;2023-10-13T04:32:33;7.40;;;4.73;;
19341;SDS011;9807;48.258;12.690;2023-10-13T04:35:11;5.50;;;4.17;;
19341;SDS011;9807;48.258;12.690;2023-10-13T04:37:39;7.20;;;4.73;;
19341;SDS011;9807;48.258;12.690;2023-10-13T04:40:26;9.87;;;4.13;;
19341;SDS011;9807;48.258;12.690;2023-10-13T04:42:55;7.60;;;4.57;;
19341;SDS011;9807;48.258;12.690;2023-10-13T04:45:29;7.53;;;4.17;;
19341;SDS011;9807;48.258;12.690;2023-10-13T04:47:56;5.87;;;4.53;;
19341;SDS011;9807;48.258;12.690;2023-10-13T04:50:23;9.80;;;4.63;;
19341;SDS011;9807;48.258;12.690;2023-10-13T04:53:06;12.70;;;5.20;;
19341;SDS011;9807;48.258;12.690;2023-10-13T04:55:52;14.30;;;5.77;;
19341;SDS011;9807;48.258;12.690;2023-10-13T04:58:33;7.80;;;5.00;;
19341;SDS011;9807;48.258;12.690;2023-10-13T05:00:59;10.93;;;4.83;;
19341;SDS011;9807;48.258;12.690;2023-10-13T05:03:43;6.83;;;4.50;;
19341;SDS011;9807;48.258;12.690;2023-10-13T05:06:19;9.17;;;4.83;;
19341;SDS011;9807;48.258;12.690;2023-10-13T05:09:03;8.07;;;5.00;;
19341;SDS011;9807;48.258;12.690;2023-10-13T05:11:47;7.00;;;4.90;;
19341;SDS011;9807;48.258;12.690;2023-10-13T05:14:31;8.40;;;4.37;;
19341;SDS011;9807;48.258;12.690;2023-10-13T05:17:16;7.47;;;4.30;;
19341;SDS011;9807;48.258;12.690;2023-10-13T05:20:00;10.53;;;5.67;;
19341;SDS011;9807;48.258;12.690;2023-10-13T05:22:44;7.50;;;4.20;;
19341;SDS011;9807;48.258;12.690;2023-10-13T05:25:28;8.23;;;4.70;;
19341;SDS011;9807;48.258;12.690;2023-10-13T05:28:12;8.00;;;5.07;;
19341;SDS011;9807;48.258;12.690;2023-10-13T05:31:00;9.10;;;4.90;;
19341;SDS011;9807;48.258;12.690;2023-10-13T05:33:46;8.30;;;4.93;;
19341;SDS011;9807;48.258;12.690;2023-10-13T05:36:30;17.30;;;5.80;;
19341;SDS011;9807;48.258;12.690;2023-10-13T05:39:14;26.17;;;6.83;;
19341;SDS011;9807;48.258;12.690;2023-10-13T05:41:59;10.90;;;4.83;;
19341;SDS011;9807;48.258;12.690;2023-10-13T05:44:47;15.87;;;6.43;;
19341;SDS011;9807;48.258;12.690;2023-10-13T05:47:34;13.23;;;5.20;;
19341;SDS011;9807;48.258;12.690;2023-10-13T05:50:06;7.20;;;4.90;;
19341;SDS011;9807;48.258;12.690;2023-10-13T05:52:41;19.07;;;6.07;;
19341;SDS011;9807;48.258;12.690;2023-10-13T05:55:28;9.57;;;5.17;;
19341;SDS011;9807;48.258;12.690;2023-10-13T05:58:14;5.07;;;4.27;;
19341;SDS011;9807;48.258;12.690;2023-10-13T06:00:59;12.20;;;5.37;;
19341;SDS011;9807;48.258;12.690;2023-10-13T06:03:44;14.93;;;5.97;;
19341;SDS011;9807;48.258;12.690;2023-10-13T06:06:28;10.90;;;6.27;;
19341;SDS011;9807;48.258;12.690;2023-10-13T06:09:12;9.73;;;5.03;;
19341;SDS011;9807;48.258;12.690;2023-10-13T06:11:57;13.77;;;5.40;;
19341;SDS011;9807;48.258;12.690;2023-10-13T06:14:45;8.43;;;5.40;;
19341;SDS011;9807;48.258;12.690;2023-10-13T06:17:30;10.17;;;5.20;;
19341;SDS011;9807;48.258;12.690;2023-10-13T06:20:14;7.63;;;4.40;;
19341;SDS011;9807;48.258;12.690;2023-10-13T06:22:58;7.27;;;4.90;;
19341;SDS011;9807;48.258;12.690;2023-10-13T06:25:42;8.90;;;4.90;;
19341;SDS011;9807;48.258;12.690;2023-10-13T06:28:33;11.00;;;5.10;;
19341;SDS011;9807;48.258;12.690;2023-10-13T06:31:08;8.97;;;5.10;;
19341;SDS011;9807;48.258;12.690;2023-10-13T06:33:48;12.40;;;5.73;;
19341;SDS011;9807;48.258;12.690;2023-10-13T06:36:13;10.07;;;5.07;;
19341;SDS011;9807;48.258;12.690;2023-10-13T06:38:39;11.20;;;5.67;;
19341;SDS011;9807;48.258;12.690;2023-10-13T06:41:06;10.77;;;5.07;;
19341;SDS011;9807;48.258;12.690;2023-10-13T06:43:33;8.50;;;5.07;;
19341;SDS011;9807;48.258;12.690;2023-10-13T06:46:05;24.30;;;7.13;;
19341;SDS011;9807;48.258;12.690;2023-10-13T06:48:32;26.70;;;9.37;;
19341;SDS011;9807;48.258;12.690;2023-10-13T06:50:59;15.77;;;7.40;;
19341;SDS011;9807;48.258;12.690;2023-10-13T06:53:49;18.00;;;7.07;;
19341;SDS011;9807;48.258;12.690;2023-10-13T06:56:22;14.63;;;6.13;;
19341;SDS011;9807;48.258;12.690;2023-10-13T06:58:53;14.30;;;5.97;;
19341;SDS011;9807;48.258;12.690;2023-10-13T07:01:29;13.40;;;5.50;;
19341;SDS011;9807;48.258;12.690;2023-10-13T07:03:55;10.00;;;5.93;;
19341;SDS011;9807;48.258;12.690;2023-10-13T07:06:26;11.67;;;5.80;;
19341;SDS011;9807;48.258;12.690;2023-10-13T07:08:53;11.60;;;5.77;;
19341;SDS011;9807;48.258;12.690;2023-10-13T07:11:27;10.50;;;5.00;;
19341;SDS011;9807;48.258;12.690;2023-10-13T07:14:02;16.10;;;7.00;;
19341;SDS011;9807;48.258;12.690;2023-10-13T07:16:42;11.73;;;5.53;;
19341;SDS011;9807;48.258;12.690;2023-10-13T07:19:12;10.23;;;5.57;;
19341;SDS011;9807;48.258;12.690;2023-10-13T07:21:43;10.50;;;4.90;;
19341;SDS011;9807;48.258;12.690;2023-10-13T07:24:12;11.87;;;4.97;;
19341;SDS011;9807;48.258;12.690;2023-10-13T07:26:40;20.67;;;6.43;;
19341;SDS011;9807;48.258;12.690;2023-10-13T07:29:12;25.87;;;7.80;;
19341;SDS011;9807;48.258;12.690;2023-10-13T07:31:39;11.07;;;5.30;;
19341;SDS011;9807;48.258;12.690;2023-10-13T07:34:07;12.83;;;5.43;;
19341;SDS011;9807;48.258;12.690;2023-10-13T07:36:50;16.93;;;6.50;;
19341;SDS011;9807;48.258;12.690;2023-10-13T07:39:24;10.63;;;5.27;;
19341;SDS011;9807;48.258;12.690;2023-10-13T07:41:51;40.20;;;10.30;;
19341;SDS011;9807;48.258;12.690;2023-10-13T07:44:28;28.30;;;9.40;;
19341;SDS011;9807;48.258;12.690;2023-10-13T07:46:57;13.53;;;5.73;;
19341;SDS011;9807;48.258;12.690;2023-10-13T07:49:36;12.77;;;5.93;;
19341;SDS011;9807;48.258;12.690;2023-10-13T07:52:05;26.50;;;8.60;;
19341;SDS011;9807;48.258;12.690;2023-10-13T07:54:45;18.20;;;6.90;;
19341;SDS011;9807;48.258;12.690;2023-10-13T07:57:15;23.93;;;7.50;;
19341;SDS011;9807;48.258;12.690;2023-10-13T07:59:42;13.87;;;6.20;;
19341;SDS011;9807;48.258;12.690;2023-10-13T08:02:19;12.93;;;7.03;;
19341;SDS011;9807;48.258;12.690;2023-10-13T08:05:13;17.17;;;6.93;;
19341;SDS011;9807;48.258;12.690;2023-10-13T08:07:49;18.40;;;7.43;;
19341;SDS011;9807;48.258;12.690;2023-10-13T08:10:17;17.83;;;6.90;;
19341;SDS011;9807;48.258;12.690;2023-10-13T08:12:43;15.37;;;6.13;;
19341;SDS011;9807;48.258;12.690;2023-10-13T08:15:09;27.10;;;7.57;;
19341;SDS011;9807;48.258;12.690;2023-10-13T08:17:47;17.87;;;7.37;;
19341;SDS011;9807;48.258;12.690;2023-10-13T08:20:16;19.10;;;5.93;;
19341;SDS011;9807;48.258;12.690;2023-10-13T08:22:43;10.53;;;5.57;;
19341;SDS011;9807;48.258;12.690;2023-10-13T08:25:12;23.10;;;6.63;;
19341;SDS011;9807;48.258;12.690;2023-10-13T08:27:49;9.07;;;4.50;;
19341;SDS011;9807;48.258;12.690;2023-10-13T08:30:35;10.50;;;4.73;;
19341;SDS011;9807;48.258;12.690;2023-10-13T08:33:16;11.70;;;5.37;;
19341;SDS011;9807;48.258;12.690;2023-10-13T08:35:42;11.13;;;5.30;;
19341;SDS011;9807;48.258;12.690;2023-10-13T08:38:19;13.63;;;6.73;;
19341;SDS011;9807;48.258;12.690;2023-10-13T08:40:53;21.37;;;6.80;;
19341;SDS011;9807;48.258;12.690;2023-10-13T08:43:43;15.50;;;5.50;;
19341;SDS011;9807;48.258;12.690;2023-10-13T08:46:18;14.57;;;5.50;;
19341;SDS011;9807;48.258;12.690;2023-10-13T08:48:55;15.07;;;5.23;;
19341;SDS011;9807;48.258;12.690;2023-10-13T08:51:34;13.83;;;5.57;;
19341;SDS011;9807;48.258;12.690;2023-10-13T08:54:30;12.67;;;5.37;;
19341;SDS011;9807;48.258;12.690;2023-10-13T08:57:03;16.00;;;5.90;;
19341;SDS011;9807;48.258;12.690;2023-10-13T08:59:55;13.40;;;5.73;;
19341;SDS011;9807;48.258;12.690;2023-10-13T09:02:23;31.33;;;8.53;;
19341;SDS011;9807;48.258;12.690;2023-10-13T09:05:08;22.07;;;6.83;;
19341;SDS011;9807;48.258;12.690;2023-10-13T09:07:54;21.47;;;5.90;;
19341;SDS011;9807;48.258;12.690;2023-10-13T09:10:22;12.87;;;5.00;;
19341;SDS011;9807;48.258;12.690;2023-10-13T09:13:09;7.30;;;4.20;;
19341;SDS011;9807;48.258;12.690;2023-10-13T09:15:44;17.17;;;6.47;;
19341;SDS011;9807;48.258;12.690;2023-10-13T09:18:29;13.10;;;4.73;;
19341;SDS011;9807;48.258;12.690;2023-10-13T09:21:11;10.03;;;4.70;;
19341;SDS011;9807;48.258;12.690;2023-10-13T09:23:59;14.30;;;5.83;;
19341;SDS011;9807;48.258;12.690;2023-10-13T09:26:44;9.23;;;4.60;;
19341;SDS011;9807;48.258;12.690;2023-10-13T09:29:15;15.93;;;4.73;;
19341;SDS011;9807;48.258;12.690;2023-10-13T09:31:46;11.87;;;4.57;;
19341;SDS011;9807;48.258;12.690;2023-10-13T09:34:19;9.40;;;4.60;;
19341;SDS011;9807;48.258;12.690;2023-10-13T09:36:48;17.40;;;4.73;;
19341;SDS011;9807;48.258;12.690;2023-10-13T09:39:21;10.40;;;4.60;;
19341;SDS011;9807;48.258;12.690;2023-10-13T09:41:59;12.97;;;5.03;;
19341;SDS011;9807;48.258;12.690;2023-10-13T09:44:25;9.83;;;5.20;;
19341;SDS011;9807;48.258;12.690;2023-10-13T09:47:03;12.83;;;4.80;;
19341;SDS011;9807;48.258;12.690;2023-10-13T09:49:42;15.33;;;5.17;;
19341;SDS011;9807;48.258;12.690;2023-10-13T09:52:18;23.27;;;6.00;;
19341;SDS011;9807;48.258;12.690;2023-10-13T09:54:50;23.23;;;5.10;;
19341;SDS011;9807;48.258;12.690;2023-10-13T09:57:41;10.63;;;4.67;;
19341;SDS011;9807;48.258;12.690;2023-10-13T10:03:15;10.10;;;4.30;;
19341;SDS011;9807;48.258;12.690;2023-10-13T10:05:59;13.73;;;4.47;;
19341;SDS011;9807;48.258;12.690;2023-10-13T10:08:30;16.60;;;4.97;;
19341;SDS011;9807;48.258;12.690;2023-10-13T10:13:41;9.03;;;4.30;;
19341;SDS011;9807;48.258;12.690;2023-10-13T10:16:20;24.10;;;9.33;;
19341;SDS011;9807;48.258;12.690;2023-10-13T10:19:01;14.07;;;4.40;;
19341;SDS011;9807;48.258;12.690;2023-10-13T10:21:34;8.17;;;3.97;;
19341;SDS011;9807;48.258;12.690;2023-10-13T10:24:00;16.03;;;4.33;;
19341;SDS011;9807;48.258;12.690;2023-10-13T10:26:33;22.03;;;4.50;;
19341;SDS011;9807;48.258;12.690;2023-10-13T10:28:58;11.93;;;4.07;;
19341;SDS011;9807;48.258;12.690;2023-10-13T10:31:32;8.73;;;3.80;;
19341;SDS011;9807;48.258;12.690;2023-10-13T10:34:15;8.60;;;3.77;;
19341;SDS011;9807;48.258;12.690;2023-10-13T10:36:46;8.50;;;3.80;;
19341;SDS011;9807;48.258;12.690;2023-10-13T10:39:12;14.50;;;3.73;;
19341;SDS011;9807;48.258;12.690;2023-10-13T10:41:40;11.77;;;4.17;;
19341;SDS011;9807;48.258;12.690;2023-10-13T10:44:19;13.57;;;4.00;;
19341;SDS011;9807;48.258;12.690;2023-10-13T10:46:51;8.70;;;3.60;;
19341;SDS011;9807;48.258;12.690;2023-10-13T10:49:23;10.83;;;3.67;;
19341;SDS011;9807;48.258;12.690;2023-10-13T10:51:58;25.57;;;5.27;;
19341;SDS011;9807;48.258;12.690;2023-10-13T10:54:29;12.50;;;4.00;;
19341;SDS011;9807;48.258;12.690;2023-10-13T10:56:57;15.57;;;4.00;;
19341;SDS011;9807;48.258;12.690;2023-10-13T10:59:38;11.50;;;4.20;;
19341;SDS011;9807;48.258;12.690;2023-10-13T11:02:04;10.63;;;4.07;;
19341;SDS011;9807;48.258;12.690;2023-10-13T11:04:32;15.73;;;4.00;;
19341;SDS011;9807;48.258;12.690;2023-10-13T11:07:22;11.97;;;3.47;;
19341;SDS011;9807;48.258;12.690;2023-10-13T11:09:49;9.67;;;4.00;;
19341;SDS011;9807;48.258;12.690;2023-10-13T11:12:18;10.27;;;3.70;;
19341;SDS011;9807;48.258;12.690;2023-10-13T11:15:00;6.87;;;3.17;;
19341;SDS011;9807;48.258;12.690;2023-10-13T11:17:26;10.67;;;3.90;;
19341;SDS011;9807;48.258;12.690;2023-10-13T11:20:13;14.67;;;3.97;;
19341;SDS011;9807;48.258;12.690;2023-10-13T11:22:45;10.10;;;3.43;;
19341;SDS011;9807;48.258;12.690;2023-10-13T11:25:19;8.20;;;3.43;;
19341;SDS011;9807;48.258;12.690;2023-10-13T11:27:48;14.40;;;3.90;;
19341;SDS011;9807;48.258;12.690;2023-10-13T11:30:15;13.27;;;3.30;;
19341;SDS011;9807;48.258;12.690;2023-10-13T11:33:10;13.13;;;3.57;;
19341;SDS011;9807;48.258;12.690;2023-10-13T11:35:36;13.40;;;4.10;;
19341;SDS011;9807;48.258;12.690;2023-10-13T11:38:36;9.37;;;3.47;;
19341;SDS011;9807;48.258;12.690;2023-10-13T11:41:05;8.53;;;3.40;;
19341;SDS011;9807;48.258;12.690;2023-10-13T11:46:21;10.90;;;3.50;;
19341;SDS011;9807;48.258;12.690;2023-10-13T11:49:04;9.83;;;3.70;;
19341;SDS011;9807;48.258;12.690;2023-10-13T11:51:54;11.03;;;3.53;;
19341;SDS011;9807;48.258;12.690;2023-10-13T11:54:39;11.83;;;3.83;;
19341;SDS011;9807;48.258;12.690;2023-10-13T11:57:07;10.30;;;3.30;;
19341;SDS011;9807;48.258;12.690;2023-10-13T11:59:33;8.13;;;3.87;;
19341;SDS011;9807;48.258;12.690;2023-10-13T12:02:01;12.07;;;3.70;;
19341;SDS011;9807;48.258;12.690;2023-10-13T12:04:37;10.83;;;3.30;;
19341;SDS011;9807;48.258;12.690;2023-10-13T12:07:14;7.23;;;3.60;;
19341;SDS011;9807;48.258;12.690;2023-10-13T12:09:49;11.60;;;3.40;;
19341;SDS011;9807;48.258;12.690;2023-10-13T12:14:48;13.90;;;3.53;;
19341;SDS011;9807;48.258;12.690;2023-10-13T12:17:21;11.70;;;3.40;;
19341;SDS011;9807;48.258;12.690;2023-10-13T12:19:59;13.27;;;3.37;;
19341;SDS011;9807;48.258;12.690;2023-10-13T12:22:29;11.87;;;3.40;;
19341;SDS011;9807;48.258;12.690;2023-10-13T12:25:03;9.00;;;3.63;;
19341;SDS011;9807;48.258;12.690;2023-10-13T12:27:59;18.97;;;3.70;;
19341;SDS011;9807;48.258;12.690;2023-10-13T12:30:47;11.17;;;3.20;;
19341;SDS011;9807;48.258;12.690;2023-10-13T12:33:19;9.87;;;3.23;;
19341;SDS011;9807;48.258;12.690;2023-10-13T12:36:02;11.60;;;3.10;;
19341;SDS011;9807;48.258;12.690;2023-10-13T12:38:32;10.97;;;3.30;;
19341;SDS011;9807;48.258;12.690;2023-10-13T12:41:21;7.87;;;3.00;;
19341;SDS011;9807;48.258;12.690;2023-10-13T12:44:06;14.67;;;3.40;;
19341;SDS011;9807;48.258;12.690;2023-10-13T12:46:51;10.40;;;3.33;;
19341;SDS011;9807;48.258;12.690;2023-10-13T12:49:36;14.37;;;3.40;;
19341;SDS011;9807;48.258;12.690;2023-10-13T12:52:17;8.90;;;3.13;;
19341;SDS011;9807;48.258;12.690;2023-10-13T12:54:50;15.00;;;3.00;;
19341;SDS011;9807;48.258;12.690;2023-10-13T12:57:22;9.93;;;3.20;;
19341;SDS011;9807;48.258;12.690;2023-10-13T12:59:49;14.67;;;3.37;;
19341;SDS011;9807;48.258;12.690;2023-10-13T13:02:18;14.97;;;3.10;;
19341;SDS011;9807;48.258;12.690;2023-10-13T13:04:50;13.27;;;2.90;;
19341;SDS011;9807;48.258;12.690;2023-10-13T13:07:22;9.37;;;3.00;;
19341;SDS011;9807;48.258;12.690;2023-10-13T13:09:54;6.93;;;3.03;;
19341;SDS011;9807;48.258;12.690;2023-10-13T13:12:24;7.83;;;3.13;;
19341;SDS011;9807;48.258;12.690;2023-10-13T13:14:50;16.43;;;3.20;;
19341;SDS011;9807;48.258;12.690;2023-10-13T13:17:20;8.67;;;2.67;;
19341;SDS011;9807;48.258;12.690;2023-10-13T13:19:46;12.93;;;3.83;;
19341;SDS011;9807;48.258;12.690;2023-10-13T13:22:12;8.90;;;3.30;;
19341;SDS011;9807;48.258;12.690;2023-10-13T13:27:12;10.53;;;2.80;;
19341;SDS011;9807;48.258;12.690;2023-10-13T13:29:44;11.73;;;3.00;;
19341;SDS011;9807;48.258;12.690;2023-10-13T13:32:10;12.43;;;3.10;;
19341;SDS011;9807;48.258;12.690;2023-10-13T13:34:49;10.87;;;3.27;;
19341;SDS011;9807;48.258;12.690;2023-10-13T13:37:33;9.63;;;2.80;;
19341;SDS011;9807;48.258;12.690;2023-10-13T13:40:03;12.63;;;2.90;;
19341;SDS011;9807;48.258;12.690;2023-10-13T13:42:43;13.93;;;3.10;;
19341;SDS011;9807;48.258;12.690;2023-10-13T13:47:46;6.70;;;2.60;;
19341;SDS011;9807;48.258;12.690;2023-10-13T13:50:18;15.80;;;3.43;;
19341;SDS011;9807;48.258;12.690;2023-10-13T13:52:52;9.20;;;2.80;;
19341;SDS011;9807;48.258;12.690;2023-10-13T13:55:20;9.73;;;3.33;;
19341;SDS011;9807;48.258;12.690;2023-10-13T13:57:55;12.00;;;3.03;;
19341;SDS011;9807;48.258;12.690;2023-10-13T14:00:21;11.03;;;3.30;;
19341;SDS011;9807;48.258;12.690;2023-10-13T14:03:05;11.50;;;2.80;;
19341;SDS011;9807;48.258;12.690;2023-10-13T14:05:43;10.40;;;3.03;;
19341;SDS011;9807;48.258;12.690;2023-10-13T14:08:09;12.57;;;2.73;;
19341;SDS011;9807;48.258;12.690;2023-10-13T14:10:40;9.27;;;3.33;;
19341;SDS011;9807;48.258;12.690;2023-10-13T14:13:24;12.70;;;2.70;;
19341;SDS011;9807;48.258;12.690;2023-10-13T14:16:30;9.53;;;2.80;;
19341;SDS011;9807;48.258;12.690;2023-10-13T14:19:02;16.30;;;3.43;;
19341;SDS011;9807;48.258;12.690;2023-10-13T14:21:32;11.90;;;2.73;;
19341;SDS011;9807;48.258;12.690;2023-10-13T14:24:00;8.17;;;3.00;;
19341;SDS011;9807;48.258;12.690;2023-10-13T14:26:26;9.83;;;3.23;;
19341;SDS011;9807;48.258;12.690;2023-10-13T14:28:52;13.83;;;3.10;;
19341;SDS011;9807;48.258;12.690;2023-10-13T14:31:35;9.13;;;3.33;;
19341;SDS011;9807;48.258;12.690;2023-10-13T14:34:04;15.83;;;3.17;;
19341;SDS011;9807;48.258;12.690;2023-10-13T14:36:30;11.83;;;3.00;;
19341;SDS011;9807;48.258;12.690;2023-10-13T14:38:59;12.97;;;3.37;;
19341;SDS011;9807;48.258;12.690;2023-10-13T14:41:26;12.00;;;3.20;;
19341;SDS011;9807;48.258;12.690;2023-10-13T14:43:51;10.40;;;2.83;;
19341;SDS011;9807;48.258;12.690;2023-10-13T14:46:18;11.47;;;3.30;;
19341;SDS011;9807;48.258;12.690;2023-10-13T14:48:48;14.03;;;2.90;;
19341;SDS011;9807;48.258;12.690;2023-10-13T14:51:16;7.40;;;3.00;;
19341;SDS011;9807;48.258;12.690;2023-10-13T14:53:45;12.00;;;3.30;;
19341;SDS011;9807;48.258;12.690;2023-10-13T14:58:37;8.93;;;2.70;;
19341;SDS011;9807;48.258;12.690;2023-10-13T15:01:14;9.87;;;3.50;;
19341;SDS011;9807;48.258;12.690;2023-10-13T15:03:45;14.17;;;3.73;;
19341;SDS011;9807;48.258;12.690;2023-10-13T15:06:17;14.23;;;3.20;;
19341;SDS011;9807;48.258;12.690;2023-10-13T15:08:55;17.97;;;3.37;;
19341;SDS011;9807;48.258;12.690;2023-10-13T15:11:24;12.00;;;3.07;;
19341;SDS011;9807;48.258;12.690;2023-10-13T15:14:03;13.13;;;3.60;;
19341;SDS011;9807;48.258;12.690;2023-10-13T15:16:32;15.00;;;3.33;;
19341;SDS011;9807;48.258;12.690;2023-10-13T15:19:01;13.57;;;3.23;;
19341;SDS011;9807;48.258;12.690;2023-10-13T15:21:29;21.10;;;3.93;;
19341;SDS011;9807;48.258;12.690;2023-10-13T15:24:01;10.57;;;3.00;;
19341;SDS011;9807;48.258;12.690;2023-10-13T15:26:42;9.97;;;3.40;;
19341;SDS011;9807;48.258;12.690;2023-10-13T15:29:13;10.70;;;3.13;;
19341;SDS011;9807;48.258;12.690;2023-10-13T15:31:45;8.57;;;3.13;;
19341;SDS011;9807;48.258;12.690;2023-10-13T15:34:27;11.30;;;3.20;;
19341;SDS011;9807;48.258;12.690;2023-10-13T15:36:54;11.60;;;3.23;;
19341;SDS011;9807;48.258;12.690;2023-10-13T15:39:24;8.30;;;2.90;;
19341;SDS011;9807;48.258;12.690;2023-10-13T15:41:53;11.17;;;3.40;;
19341;SDS011;9807;48.258;12.690;2023-10-13T15:44:23;12.90;;;3.40;;
19341;SDS011;9807;48.258;12.690;2023-10-13T15:46:53;12.50;;;3.30;;
19341;SDS011;9807;48.258;12.690;2023-10-13T15:49:19;9.77;;;3.43;;